createdAt,value
2022-09-16T00:03:36.531Z,11.93
2022-09-16T00:08:39.634Z,11.84
2022-09-16T00:13:41.300Z,11.87
2022-09-16T00:18:42.055Z,11.83
2022-09-16T00:23:42.810Z,11.84
2022-09-16T00:28:43.716Z,11.83
2022-09-16T00:33:44.553Z,11.77
2022-09-16T00:38:45.351Z,11.76
2022-09-16T00:44:24.072Z,11.74
2022-09-16T00:49:29.076Z,11.76
2022-09-16T00:54:32.244Z,11.68
2022-09-16T00:59:34.975Z,11.64
2022-09-16T01:04:53.191Z,11.64
2022-09-16T01:09:53.945Z,11.67
2022-09-16T01:14:57.375Z,11.64
2022-09-16T01:21:43.681Z,11.66
2022-09-16T01:27:13.003Z,11.66
2022-09-16T01:32:29.677Z,11.56
2022-09-16T01:37:52.180Z,11.49
2022-09-16T01:43:21.084Z,11.51
2022-09-16T01:48:50.497Z,11.47
2022-09-16T01:54:06.274Z,11.51
2022-09-16T01:59:18.655Z,11.54
2022-09-16T02:04:29.389Z,11.56
2022-09-16T02:09:36.704Z,11.53
2022-09-16T02:14:47.394Z,11.58
2022-09-16T02:20:00.461Z,11.67
2022-09-16T02:25:04.244Z,11.64
2022-09-16T02:30:11.663Z,11.54
2022-09-16T02:35:17.316Z,11.45
2022-09-16T02:41:19.414Z,11.33
2022-09-16T02:46:40.260Z,11.26
2022-09-16T02:53:22.034Z,11.29
2022-09-16T02:58:23.195Z,11.21
2022-09-16T03:03:24.769Z,11.27
2022-09-16T03:08:25.516Z,11.26
2022-09-16T03:13:44.169Z,11.27
2022-09-16T03:20:55.842Z,11.36
2022-09-16T03:26:09.666Z,11.29
2022-09-16T03:31:22.339Z,11.24
2022-09-16T03:36:29.804Z,11.26
2022-09-16T03:41:33.209Z,11.19
2022-09-16T03:46:34.331Z,11.17
2022-09-16T03:51:35.220Z,11.23
2022-09-16T03:56:35.947Z,11.25
2022-09-16T04:01:36.733Z,11.26
2022-09-16T04:06:37.861Z,11.22
2022-09-16T04:11:39.742Z,11.17
2022-09-16T04:16:44.981Z,11.16
2022-09-16T04:21:46.503Z,11.17
2022-09-16T04:26:47.403Z,11.12
2022-09-16T04:31:48.264Z,11.15
2022-09-16T04:36:49.317Z,11.12
2022-09-16T04:41:50.073Z,11.07
2022-09-16T04:46:50.899Z,11.00
2022-09-16T04:51:51.666Z,11.02
2022-09-16T04:56:52.408Z,11.05
2022-09-16T05:01:53.296Z,11.04
2022-09-16T05:06:54.326Z,10.92
2022-09-16T05:11:55.097Z,10.97
2022-09-16T05:16:56.530Z,10.88
2022-09-16T05:21:57.590Z,10.87
2022-09-16T05:26:58.448Z,10.88
2022-09-16T05:32:00.040Z,10.91
2022-09-16T05:37:00.949Z,10.90
2022-09-16T05:42:03.997Z,10.83
2022-09-16T05:47:04.880Z,10.88
2022-09-16T05:52:05.629Z,10.79
2022-09-16T05:57:07.298Z,10.80
2022-09-16T06:02:11.426Z,10.81
2022-09-16T06:07:12.377Z,10.88
2022-09-16T06:12:13.127Z,10.98
2022-09-16T06:17:13.942Z,10.99
2022-09-16T06:22:15.065Z,11.12
2022-09-16T06:27:15.832Z,11.01
2022-09-16T06:32:16.628Z,11.00
2022-09-16T06:37:18.038Z,10.97
2022-09-16T06:42:18.784Z,10.93
2022-09-16T06:47:19.862Z,11.02
2022-09-16T06:52:20.607Z,11.19
2022-09-16T06:57:22.809Z,11.31
2022-09-16T07:02:23.551Z,11.45
2022-09-16T07:07:24.392Z,11.55
2022-09-16T07:12:25.194Z,11.82
2022-09-16T07:17:26.611Z,11.87
2022-09-16T07:22:30.708Z,12.02
2022-09-16T07:27:31.487Z,12.21
2022-09-16T07:32:32.258Z,12.52
2022-09-16T07:37:34.232Z,12.37
2022-09-16T07:42:34.970Z,12.46
2022-09-16T07:47:35.912Z,12.72
2022-09-16T07:52:36.800Z,12.83
2022-09-16T07:57:37.587Z,12.92
2022-09-16T08:02:38.682Z,13.02
2022-09-16T08:07:39.596Z,13.19
2022-09-16T08:12:40.349Z,13.27
2022-09-16T08:17:41.239Z,13.09
2022-09-16T08:22:41.963Z,13.21
2022-09-16T08:27:43.418Z,13.48
2022-09-16T08:32:44.176Z,13.53
2022-09-16T08:37:49.446Z,13.38
2022-09-16T08:50:36.138Z,13.16
2022-09-16T08:55:42.099Z,12.43
2022-09-16T09:00:46.505Z,12.81
2022-09-16T09:05:53.227Z,13.50
2022-09-16T09:11:02.879Z,14.15
2022-09-16T09:17:49.645Z,14.18
2022-09-16T09:24:36.262Z,13.70
2022-09-16T09:33:41.393Z,13.15
2022-09-16T09:40:38.496Z,12.97
2022-09-16T09:46:33.113Z,12.74
2022-09-16T09:51:40.306Z,12.75
2022-09-16T09:56:45.083Z,12.90
2022-09-16T10:01:46.009Z,13.81
2022-09-16T10:06:48.786Z,13.95
2022-09-16T10:11:54.888Z,14.32
2022-09-16T10:17:00.912Z,14.02
2022-09-16T10:22:11.230Z,13.70
2022-09-16T10:27:23.119Z,13.67
2022-09-16T10:32:24.349Z,13.62
2022-09-16T10:37:27.608Z,13.16
2022-09-16T10:42:28.725Z,11.84
2022-09-16T10:47:32.609Z,11.39
2022-09-16T10:52:45.825Z,11.61
2022-09-16T10:57:46.779Z,12.01
2022-09-16T11:03:25.584Z,13.10
2022-09-16T11:14:22.507Z,13.95
2022-09-16T11:19:40.880Z,14.98
2022-09-16T11:28:28.222Z,14.22
2022-09-16T11:36:34.871Z,13.95
2022-09-16T11:41:49.414Z,14.17
2022-09-16T11:48:15.357Z,14.78
2022-09-16T11:53:44.022Z,14.36
2022-09-16T12:00:35.246Z,13.88
2022-09-16T12:05:45.251Z,13.35
2022-09-16T12:10:53.783Z,13.05
2022-09-16T12:16:03.226Z,12.70
2022-09-16T12:21:18.837Z,12.33
2022-09-16T12:26:25.019Z,11.33
2022-09-16T12:31:33.064Z,11.17
2022-09-16T12:36:37.935Z,11.47
2022-09-16T12:42:16.285Z,11.62
2022-09-16T12:49:43.257Z,12.26
2022-09-16T12:56:23.278Z,13.50
2022-09-16T13:01:36.672Z,13.86
2022-09-16T13:06:44.422Z,14.33
2022-09-16T13:12:31.837Z,14.07
2022-09-16T13:17:39.069Z,14.02
2022-09-16T13:22:48.466Z,13.92
2022-09-16T13:27:59.713Z,13.65
2022-09-16T13:33:25.219Z,12.51
2022-09-16T13:38:42.278Z,11.80
2022-09-16T13:43:53.773Z,11.73
2022-09-16T13:49:03.948Z,12.00
2022-09-16T13:54:21.076Z,12.24
2022-09-16T14:02:54.660Z,12.93
2022-09-16T14:10:45.093Z,12.68
2022-09-16T14:15:50.060Z,13.05
2022-09-16T14:21:04.058Z,13.70
2022-09-16T14:26:38.376Z,13.98
2022-09-16T14:31:44.472Z,13.98
2022-09-16T14:36:46.656Z,14.27
2022-09-16T14:41:54.773Z,14.26
2022-09-16T14:47:29.273Z,14.19
2022-09-16T14:52:34.782Z,14.35
2022-09-16T14:57:35.945Z,14.17
2022-09-16T15:03:27.247Z,12.97
2022-09-16T15:08:38.175Z,12.24
2022-09-16T15:13:40.517Z,11.49
2022-09-16T15:18:51.826Z,10.80
2022-09-16T15:23:59.132Z,10.86
2022-09-16T15:29:02.701Z,11.20
2022-09-16T15:34:22.217Z,11.49
2022-09-16T15:39:31.002Z,11.77
2022-09-16T15:44:37.170Z,11.64
2022-09-16T15:49:39.919Z,11.79
2022-09-16T15:54:51.951Z,12.26
2022-09-16T16:00:13.057Z,12.54
2022-09-16T16:05:20.392Z,12.38
2022-09-16T16:10:35.582Z,12.34
2022-09-16T16:15:39.026Z,11.70
2022-09-16T16:20:40.222Z,11.29
2022-09-16T16:25:40.974Z,11.07
2022-09-16T16:30:41.826Z,11.04
2022-09-16T16:35:42.726Z,11.22
2022-09-16T16:40:50.345Z,11.14
2022-09-16T16:45:57.675Z,10.97
2022-09-16T16:51:01.151Z,10.82
2022-09-16T16:56:15.082Z,10.77
2022-09-16T17:01:18.464Z,10.86
2022-09-16T17:06:19.310Z,10.81
2022-09-16T17:11:20.750Z,10.83
2022-09-16T17:16:23.775Z,10.62
2022-09-16T17:21:26.420Z,10.43
2022-09-16T17:26:27.644Z,10.22
2022-09-16T17:31:31.687Z,10.09
2022-09-16T17:36:34.806Z,9.89
2022-09-16T17:41:36.385Z,9.83
2022-09-16T17:46:38.805Z,9.58
2022-09-16T17:51:40.734Z,9.47
2022-09-16T17:56:42.298Z,9.32
2022-09-16T18:01:43.594Z,9.15
2022-09-16T18:06:45.950Z,9.19
2022-09-16T18:11:46.988Z,9.08
2022-09-16T18:16:47.907Z,9.11
2022-09-16T18:21:48.930Z,9.13
2022-09-16T18:26:49.859Z,9.08
2022-09-16T18:31:52.251Z,8.96
2022-09-16T18:36:53.497Z,8.97
2022-09-16T18:41:55.403Z,9.07
2022-09-16T18:46:56.623Z,8.98
2022-09-16T18:51:57.850Z,8.99
2022-09-16T18:57:00.989Z,8.95
2022-09-16T19:02:02.961Z,8.83
2022-09-16T19:07:07.011Z,8.70
2022-09-16T19:12:12.492Z,8.62
2022-09-16T19:17:13.276Z,8.60
2022-09-16T19:22:14.143Z,8.61
2022-09-16T19:27:14.966Z,8.52
2022-09-16T19:32:15.776Z,8.48
2022-09-16T19:37:16.629Z,8.53
2022-09-16T19:42:17.417Z,8.41
2022-09-16T19:47:18.146Z,8.34
2022-09-16T19:52:19.257Z,8.27
2022-09-16T19:57:21.161Z,8.24
2022-09-16T20:02:22.047Z,8.22
2022-09-16T20:07:22.931Z,8.32
2022-09-16T20:12:23.771Z,8.25
2022-09-16T20:17:24.530Z,8.27
2022-09-16T20:22:25.365Z,8.20
2022-09-16T20:27:26.176Z,8.19
2022-09-16T20:32:26.906Z,8.21
2022-09-16T20:37:27.694Z,8.24
2022-09-16T20:42:30.674Z,8.18
2022-09-16T20:47:31.404Z,8.19
2022-09-16T20:52:32.859Z,8.24
2022-09-16T20:57:33.655Z,8.20
2022-09-16T21:02:34.978Z,8.14
2022-09-16T21:07:35.834Z,8.10
2022-09-16T21:12:36.666Z,8.08
2022-09-16T21:17:37.421Z,8.04
2022-09-16T21:22:38.396Z,8.02
2022-09-16T21:27:39.177Z,7.98
2022-09-16T21:32:42.366Z,8.00
2022-09-16T21:37:43.122Z,7.98
2022-09-16T21:42:44.285Z,7.92
2022-09-16T21:47:46.562Z,7.93
2022-09-16T21:52:47.384Z,7.90
2022-09-16T21:57:48.450Z,7.90
2022-09-16T22:02:49.275Z,7.87
2022-09-16T22:07:50.356Z,7.90
2022-09-16T22:12:51.134Z,7.87
2022-09-16T22:17:53.408Z,7.83
2022-09-16T22:22:55.536Z,7.85
2022-09-16T22:27:56.266Z,7.82
2022-09-16T22:32:57.039Z,7.80
2022-09-16T22:37:57.789Z,7.73
2022-09-16T22:42:58.562Z,7.78
2022-09-16T22:47:59.305Z,7.61
2022-09-16T22:53:00.156Z,7.62
2022-09-16T22:58:01.189Z,7.50
2022-09-16T23:03:02.059Z,7.56
2022-09-16T23:08:02.798Z,7.53
2022-09-16T23:13:03.575Z,7.42
2022-09-16T23:18:05.362Z,7.30
2022-09-16T23:23:06.277Z,7.30
2022-09-16T23:28:07.045Z,7.33
2022-09-16T23:33:07.786Z,7.34
2022-09-16T23:38:09.382Z,7.28
2022-09-16T23:43:10.166Z,7.21
2022-09-16T23:48:11.067Z,7.15
2022-09-16T23:53:13.276Z,7.09
2022-09-16T23:58:14.041Z,7.04
